createdAt,value
2018-03-31T00:00:59.911Z,4.22
2018-03-31T00:03:27.020Z,3.85
2018-03-31T00:05:55.288Z,3.50
2018-03-31T00:08:22.431Z,5.60
2018-03-31T00:10:53.903Z,6.07
2018-03-31T00:13:21.020Z,4.95
2018-03-31T00:15:48.160Z,4.75
2018-03-31T00:18:16.773Z,4.75
2018-03-31T00:20:43.892Z,3.90
2018-03-31T00:23:11.814Z,4.15
2018-03-31T00:25:38.966Z,4.28
2018-03-31T00:28:06.429Z,3.78
2018-03-31T00:30:33.580Z,4.28
2018-03-31T00:33:01.422Z,3.60
2018-03-31T00:35:33.425Z,4.60
2018-03-31T00:38:00.785Z,3.45
2018-03-31T00:40:28.188Z,5.00
2018-03-31T00:42:55.353Z,3.05
2018-03-31T00:45:28.952Z,3.28
2018-03-31T00:47:56.056Z,3.25
2018-03-31T00:50:23.986Z,3.30
2018-03-31T00:52:53.531Z,3.90
2018-03-31T00:55:21.375Z,3.60
2018-03-31T00:57:48.535Z,3.40
2018-03-31T01:00:16.666Z,5.90
2018-03-31T01:02:46.464Z,3.03
2018-03-31T01:05:13.651Z,3.10
2018-03-31T01:07:40.835Z,3.65
2018-03-31T01:10:08.699Z,3.47
2018-03-31T01:12:36.860Z,3.90
2018-03-31T01:15:05.096Z,3.25
2018-03-31T01:17:32.214Z,3.60
2018-03-31T01:20:00.876Z,3.30
2018-03-31T01:22:27.997Z,3.80
2018-03-31T01:24:55.108Z,4.18
2018-03-31T01:27:22.224Z,7.68
2018-03-31T01:29:50.479Z,6.70
2018-03-31T01:32:17.627Z,4.30
2018-03-31T01:34:44.795Z,5.60
2018-03-31T01:37:11.905Z,4.00
2018-03-31T01:39:40.359Z,3.97
2018-03-31T01:42:07.741Z,3.97
2018-03-31T01:44:34.868Z,4.53
2018-03-31T01:47:01.999Z,3.55
2018-03-31T01:49:29.515Z,4.12
2018-03-31T01:51:58.418Z,3.85
2018-03-31T01:54:25.503Z,4.00
2018-03-31T01:56:53.480Z,4.82
2018-03-31T01:59:21.706Z,4.15
2018-03-31T02:01:50.249Z,4.15
2018-03-31T02:04:17.403Z,3.75
2018-03-31T02:06:50.939Z,3.65
2018-03-31T02:09:18.688Z,4.32
2018-03-31T02:11:50.333Z,4.05
2018-03-31T02:14:18.531Z,4.50
2018-03-31T02:16:49.795Z,4.87
2018-03-31T02:19:17.704Z,4.80
2018-03-31T02:21:44.802Z,5.20
2018-03-31T02:24:13.336Z,5.90
2018-03-31T02:26:40.464Z,5.18
2018-03-31T02:29:10.547Z,5.30
2018-03-31T02:31:38.499Z,5.35
2018-03-31T02:34:05.634Z,5.15
2018-03-31T02:36:32.783Z,5.20
2018-03-31T02:38:59.908Z,5.75
2018-03-31T02:41:27.008Z,5.25
2018-03-31T02:43:54.145Z,5.43
2018-03-31T02:46:21.807Z,6.75
2018-03-31T02:48:48.920Z,5.70
2018-03-31T02:51:15.996Z,5.93
2018-03-31T02:53:43.122Z,5.85
2018-03-31T02:56:10.646Z,6.03
2018-03-31T02:58:38.290Z,6.62
2018-03-31T03:01:06.426Z,6.25
2018-03-31T03:03:35.394Z,7.18
2018-03-31T03:06:02.492Z,6.70
2018-03-31T03:08:32.760Z,6.87
2018-03-31T03:11:00.052Z,7.12
2018-03-31T03:13:27.379Z,7.32
2018-03-31T03:15:54.721Z,6.90
2018-03-31T03:18:22.289Z,6.70
2018-03-31T03:20:49.419Z,7.43
2018-03-31T03:23:16.836Z,7.12
2018-03-31T03:25:43.947Z,7.10
2018-03-31T03:28:11.633Z,7.35
2018-03-31T03:30:38.692Z,7.00
2018-03-31T03:33:05.820Z,7.20
2018-03-31T03:35:32.933Z,7.20
2018-03-31T03:38:00.052Z,7.82
2018-03-31T03:40:27.143Z,8.07
2018-03-31T03:42:54.277Z,7.30
2018-03-31T03:45:21.457Z,8.73
2018-03-31T03:47:49.148Z,8.00
2018-03-31T03:50:16.992Z,8.80
2018-03-31T03:52:44.140Z,8.48
2018-03-31T03:55:11.660Z,8.95
2018-03-31T03:57:38.751Z,9.10
2018-03-31T04:00:05.966Z,8.85
2018-03-31T04:02:33.851Z,8.73
2018-03-31T04:05:00.991Z,8.25
2018-03-31T04:07:28.630Z,8.75
2018-03-31T04:09:55.806Z,10.68
2018-03-31T04:12:23.170Z,9.93
2018-03-31T04:14:50.267Z,9.30
2018-03-31T04:17:17.961Z,9.68
2018-03-31T04:23:00.103Z,9.20
2018-03-31T04:25:27.259Z,9.00
2018-03-31T04:27:55.771Z,9.57
2018-03-31T04:30:22.886Z,9.98
2018-03-31T04:32:50.382Z,9.85
2018-03-31T04:37:51.382Z,10.00
2018-03-31T04:40:18.504Z,10.20
2018-03-31T04:42:46.382Z,9.40
2018-03-31T04:48:29.562Z,11.73
2018-03-31T04:50:57.154Z,11.88
2018-03-31T04:53:24.618Z,12.82
2018-03-31T04:55:51.687Z,13.00
2018-03-31T04:58:19.908Z,12.40
2018-03-31T05:00:47.532Z,12.80
2018-03-31T05:03:14.611Z,12.52
2018-03-31T05:05:41.722Z,13.07
2018-03-31T05:08:08.836Z,11.43
2018-03-31T05:10:35.938Z,11.90
2018-03-31T05:13:03.424Z,11.68
2018-03-31T05:15:30.849Z,13.98
2018-03-31T05:17:58.198Z,14.60
2018-03-31T05:20:25.276Z,12.30
2018-03-31T05:22:52.390Z,12.60
2018-03-31T05:25:19.886Z,11.65
2018-03-31T05:27:47.020Z,13.85
2018-03-31T05:30:14.510Z,13.85
2018-03-31T05:32:41.645Z,12.52
2018-03-31T05:35:09.795Z,14.05
2018-03-31T05:37:51.099Z,19.40
2018-03-31T05:40:18.197Z,22.73
2018-03-31T05:42:45.303Z,17.58
2018-03-31T05:45:12.411Z,29.52
2018-03-31T05:47:41.520Z,17.52
2018-03-31T05:50:10.592Z,17.25
2018-03-31T05:52:38.461Z,14.50
2018-03-31T05:55:05.572Z,10.88
2018-03-31T05:57:33.020Z,10.60
2018-03-31T06:00:02.038Z,10.60
2018-03-31T06:02:37.132Z,10.82
2018-03-31T06:05:04.574Z,11.10
2018-03-31T06:07:32.275Z,11.05
2018-03-31T06:09:59.626Z,8.88
2018-03-31T06:12:26.769Z,8.50
2018-03-31T06:15:01.052Z,10.07
2018-03-31T06:17:30.644Z,9.75
2018-03-31T06:20:11.988Z,10.10
2018-03-31T06:22:39.435Z,12.07
2018-03-31T06:27:42.207Z,8.27
2018-03-31T06:30:13.924Z,8.70
2018-03-31T06:32:44.400Z,11.07
2018-03-31T06:37:44.378Z,13.30
2018-03-31T06:40:16.021Z,8.00
2018-03-31T06:42:48.417Z,8.30
2018-03-31T06:45:16.273Z,6.32
2018-03-31T06:50:41.223Z,7.10
2018-03-31T06:53:23.690Z,5.72
2018-03-31T06:55:51.604Z,5.32
2018-03-31T06:58:19.143Z,5.00
2018-03-31T07:00:58.359Z,5.30
2018-03-31T07:03:26.226Z,4.60
2018-03-31T07:05:54.131Z,4.62
2018-03-31T07:08:22.414Z,3.85
2018-03-31T07:10:49.510Z,3.90
2018-03-31T07:13:17.795Z,4.07
2018-03-31T07:15:45.700Z,4.33
2018-03-31T07:18:13.381Z,4.72
2018-03-31T07:20:41.389Z,5.70
2018-03-31T07:23:09.296Z,5.60
2018-03-31T07:25:36.490Z,5.45
2018-03-31T07:28:03.596Z,5.55
2018-03-31T07:30:30.979Z,6.15
2018-03-31T07:32:58.084Z,5.97
2018-03-31T07:35:25.424Z,5.82
2018-03-31T07:37:54.248Z,3.78
2018-03-31T07:40:24.452Z,4.60
2018-03-31T07:42:51.777Z,5.20
2018-03-31T07:45:18.852Z,4.67
2018-03-31T07:47:45.944Z,5.03
2018-03-31T07:50:13.054Z,5.80
2018-03-31T07:52:40.159Z,5.00
2018-03-31T07:55:08.334Z,6.07
2018-03-31T07:57:37.527Z,5.70
2018-03-31T08:00:05.777Z,5.30
2018-03-31T08:02:33.541Z,8.17
2018-03-31T08:05:01.803Z,5.20
2018-03-31T08:07:28.920Z,5.80
2018-03-31T08:09:56.875Z,5.63
2018-03-31T08:12:24.314Z,4.30
2018-03-31T08:14:51.438Z,4.03
2018-03-31T08:17:18.564Z,3.80
2018-03-31T08:19:46.314Z,4.47
2018-03-31T08:22:13.471Z,3.93
2018-03-31T08:24:40.624Z,4.97
2018-03-31T08:27:08.551Z,5.20
2018-03-31T08:29:35.686Z,4.30
2018-03-31T08:32:02.793Z,3.70
2018-03-31T08:34:30.015Z,3.93
2018-03-31T08:36:57.124Z,4.00
2018-03-31T08:39:39.107Z,7.67
2018-03-31T08:42:06.190Z,5.47
2018-03-31T08:44:33.292Z,4.47
2018-03-31T08:47:00.913Z,4.70
2018-03-31T08:49:29.131Z,4.10
2018-03-31T08:51:56.284Z,11.70
2018-03-31T08:54:23.394Z,5.00
2018-03-31T08:56:53.973Z,3.70
2018-03-31T08:59:23.285Z,3.40
2018-03-31T09:01:50.426Z,3.50
2018-03-31T09:04:17.508Z,3.43
2018-03-31T09:06:46.041Z,3.27
2018-03-31T09:09:14.038Z,3.40
2018-03-31T09:11:41.176Z,3.33
2018-03-31T09:14:08.306Z,3.40
2018-03-31T09:16:35.426Z,3.00
2018-03-31T09:19:03.418Z,3.50
2018-03-31T09:21:30.926Z,3.30
2018-03-31T09:23:58.054Z,3.70
2018-03-31T09:26:25.744Z,3.43
2018-03-31T09:28:52.865Z,3.80
2018-03-31T09:31:20.255Z,4.07
2018-03-31T09:33:48.115Z,3.93
2018-03-31T09:36:16.579Z,3.70
2018-03-31T09:38:43.684Z,4.30
2018-03-31T09:41:13.264Z,3.93
2018-03-31T09:43:44.244Z,4.37
2018-03-31T09:46:11.999Z,4.60
2018-03-31T09:48:40.799Z,4.20
2018-03-31T09:51:07.921Z,4.03
2018-03-31T09:53:36.538Z,3.97
2018-03-31T09:56:04.243Z,3.77
2018-03-31T09:58:31.674Z,4.00
2018-03-31T10:01:04.243Z,3.87
2018-03-31T10:03:31.740Z,5.20
2018-03-31T10:06:00.785Z,4.10
2018-03-31T10:08:31.238Z,3.70
2018-03-31T10:10:58.351Z,3.40
2018-03-31T10:13:28.124Z,3.50
2018-03-31T10:15:56.008Z,8.60
2018-03-31T10:18:23.631Z,12.20
2018-03-31T10:20:50.756Z,4.40
2018-03-31T10:23:18.390Z,4.17
2018-03-31T10:25:45.507Z,4.13
2018-03-31T10:28:13.389Z,3.83
2018-03-31T10:30:40.489Z,4.17
2018-03-31T10:33:09.565Z,4.03
2018-03-31T10:35:37.233Z,3.40
2018-03-31T10:38:04.345Z,4.50
2018-03-31T10:40:32.149Z,4.17
2018-03-31T10:42:59.275Z,4.27
2018-03-31T10:45:26.465Z,4.00
2018-03-31T10:47:54.584Z,3.70
2018-03-31T10:50:21.686Z,3.80
2018-03-31T10:53:03.643Z,3.53
2018-03-31T10:55:30.745Z,3.40
2018-03-31T10:57:58.905Z,3.40
2018-03-31T11:00:26.003Z,5.77
2018-03-31T11:02:53.851Z,3.70
2018-03-31T11:05:21.696Z,3.60
2018-03-31T11:07:49.803Z,3.70
2018-03-31T11:10:16.948Z,3.33
2018-03-31T11:12:54.803Z,3.77
2018-03-31T11:15:21.848Z,3.93
2018-03-31T11:17:48.967Z,2.57
2018-03-31T11:20:16.103Z,3.07
2018-03-31T11:22:43.212Z,2.70
2018-03-31T11:25:14.053Z,2.50
2018-03-31T11:27:41.206Z,3.80
2018-03-31T11:30:08.290Z,2.93
2018-03-31T11:32:35.405Z,2.40
2018-03-31T11:35:02.492Z,3.00
2018-03-31T11:37:36.196Z,2.57
2018-03-31T11:40:03.311Z,2.50
2018-03-31T11:42:30.473Z,5.73
2018-03-31T11:44:58.371Z,4.33
2018-03-31T11:47:25.494Z,3.40
2018-03-31T11:49:52.595Z,2.80
2018-03-31T11:52:20.698Z,2.40
2018-03-31T11:54:47.824Z,7.47
2018-03-31T11:57:14.937Z,2.70
2018-03-31T11:59:42.035Z,4.13
2018-03-31T12:02:09.178Z,2.40
2018-03-31T12:04:36.263Z,2.00
2018-03-31T12:07:04.300Z,3.10
2018-03-31T12:09:31.371Z,2.40
2018-03-31T12:11:58.537Z,3.03
2018-03-31T12:14:26.421Z,2.10
2018-03-31T12:16:53.565Z,2.33
2018-03-31T12:19:20.634Z,2.80
2018-03-31T12:21:47.708Z,5.80
2018-03-31T12:24:14.858Z,3.23
2018-03-31T12:26:41.956Z,2.47
2018-03-31T12:29:09.059Z,2.10
2018-03-31T12:31:47.009Z,3.10
2018-03-31T12:34:14.135Z,2.07
2018-03-31T12:36:42.064Z,1.77
2018-03-31T12:39:09.177Z,1.80
2018-03-31T12:41:39.351Z,2.27
2018-03-31T12:44:06.470Z,1.60
2018-03-31T12:46:33.580Z,2.20
2018-03-31T12:49:00.683Z,1.87
2018-03-31T12:51:27.796Z,4.60
2018-03-31T12:53:55.668Z,1.87
2018-03-31T12:56:22.746Z,1.90
2018-03-31T12:58:49.813Z,1.93
2018-03-31T13:01:17.709Z,1.83
2018-03-31T13:03:45.713Z,2.17
2018-03-31T13:06:17.831Z,2.13
2018-03-31T13:08:45.550Z,2.60
2018-03-31T13:11:12.690Z,2.37
2018-03-31T13:13:40.174Z,1.93
2018-03-31T13:16:07.342Z,1.73
2018-03-31T13:18:35.253Z,3.20
2018-03-31T13:21:02.429Z,1.90
2018-03-31T13:23:29.694Z,1.90
2018-03-31T13:25:56.870Z,1.87
2018-03-31T13:28:24.739Z,2.90
2018-03-31T13:30:51.899Z,2.43
2018-03-31T13:33:19.031Z,2.13
2018-03-31T13:35:55.410Z,2.53
2018-03-31T13:38:28.829Z,3.90
2018-03-31T13:41:00.614Z,2.10
2018-03-31T13:43:28.200Z,2.23
2018-03-31T13:45:56.287Z,2.40
2018-03-31T13:48:24.175Z,3.77
2018-03-31T13:50:51.360Z,1.97
2018-03-31T13:53:18.494Z,3.10
2018-03-31T13:55:45.642Z,2.30
2018-03-31T13:58:16.333Z,2.03
2018-03-31T14:00:46.312Z,3.00
2018-03-31T14:03:19.466Z,2.33
2018-03-31T14:05:46.578Z,2.37
2018-03-31T14:08:19.999Z,5.10
2018-03-31T14:10:54.770Z,3.20
2018-03-31T14:13:21.903Z,2.80
2018-03-31T14:15:50.010Z,2.50
2018-03-31T14:18:17.101Z,2.67
2018-03-31T14:21:02.957Z,2.30
2018-03-31T14:23:30.477Z,2.47
2018-03-31T14:25:57.642Z,4.27
2018-03-31T14:28:24.861Z,2.73
2018-03-31T14:30:52.875Z,2.70
2018-03-31T14:33:20.165Z,2.97
2018-03-31T14:35:47.560Z,2.80
2018-03-31T14:38:26.478Z,2.80
2018-03-31T14:40:54.691Z,4.37
2018-03-31T14:43:24.427Z,2.70
2018-03-31T14:45:51.582Z,3.00
2018-03-31T14:48:20.502Z,4.17
2018-03-31T14:50:48.926Z,2.40
2018-03-31T14:53:18.058Z,2.63
2018-03-31T14:55:45.443Z,3.97
2018-03-31T14:58:12.912Z,2.13
2018-03-31T15:00:41.343Z,2.40
2018-03-31T15:03:09.224Z,2.00
2018-03-31T15:05:36.370Z,2.30
2018-03-31T15:08:03.818Z,2.30
2018-03-31T15:10:32.327Z,2.20
2018-03-31T15:13:00.197Z,2.50
2018-03-31T15:15:27.471Z,2.43
2018-03-31T15:17:54.602Z,2.13
2018-03-31T15:20:22.573Z,2.00
2018-03-31T15:22:50.069Z,5.20
2018-03-31T15:25:17.313Z,2.77
2018-03-31T15:27:45.276Z,2.40
2018-03-31T15:30:12.592Z,2.80
2018-03-31T15:32:39.992Z,2.43
2018-03-31T15:35:09.004Z,2.47
2018-03-31T15:37:41.378Z,2.10
2018-03-31T15:40:08.877Z,3.07
2018-03-31T15:42:37.107Z,2.13
2018-03-31T15:45:05.509Z,2.33
2018-03-31T15:47:32.687Z,2.40
2018-03-31T15:52:35.472Z,2.50
2018-03-31T16:08:06.190Z,2.90
2018-03-31T16:10:33.322Z,3.50
2018-03-31T16:13:01.470Z,2.73
2018-03-31T16:15:29.356Z,3.73
2018-03-31T16:17:56.581Z,3.50
2018-03-31T16:20:23.729Z,3.70
2018-03-31T16:22:51.750Z,2.90
2018-03-31T16:25:26.257Z,2.87
2018-03-31T16:33:56.197Z,3.23
2018-03-31T16:36:33.440Z,3.60
2018-03-31T16:39:02.510Z,2.80
2018-03-31T16:41:29.746Z,2.77
2018-03-31T16:43:57.201Z,3.53
2018-03-31T16:46:48.436Z,3.80
2018-03-31T16:59:07.658Z,3.07
2018-03-31T17:01:35.101Z,2.40
2018-03-31T17:17:03.198Z,2.70
2018-03-31T17:19:30.425Z,4.23
2018-03-31T17:35:23.569Z,2.90
2018-03-31T17:37:50.764Z,2.50
2018-03-31T17:40:18.669Z,2.77
2018-03-31T17:42:45.800Z,3.00
2018-03-31T17:45:12.915Z,5.23
2018-03-31T17:47:40.003Z,9.27
2018-03-31T17:50:07.215Z,7.43
2018-03-31T17:52:34.321Z,6.57
2018-03-31T17:55:01.497Z,8.07
2018-03-31T17:57:28.616Z,8.97
2018-03-31T17:59:55.788Z,6.30
2018-03-31T18:02:22.913Z,5.80
2018-03-31T18:04:50.517Z,6.83
2018-03-31T18:07:20.951Z,6.90
2018-03-31T18:09:48.065Z,4.68
2018-03-31T18:12:15.226Z,4.47
2018-03-31T18:14:42.356Z,5.10
2018-03-31T18:17:22.296Z,4.10
2018-03-31T18:19:49.402Z,4.07
2018-03-31T18:22:16.602Z,4.25
2018-03-31T18:24:45.014Z,3.75
2018-03-31T18:27:12.152Z,4.55
2018-03-31T18:32:56.125Z,2.58
2018-03-31T18:35:41.902Z,23.08
2018-03-31T18:38:09.036Z,14.15
2018-03-31T18:40:36.180Z,6.10
2018-03-31T18:43:03.351Z,5.55
2018-03-31T18:45:30.868Z,5.55
2018-03-31T18:47:57.991Z,6.85
2018-03-31T18:50:25.097Z,2.60
2018-03-31T18:52:52.222Z,4.93
2018-03-31T18:55:41.139Z,3.50
2018-03-31T18:58:08.298Z,3.33
2018-03-31T19:00:35.464Z,4.37
2018-03-31T19:03:03.387Z,4.22
2018-03-31T19:05:30.472Z,2.95
2018-03-31T19:07:58.342Z,2.45
2018-03-31T19:10:25.502Z,3.03
2018-03-31T19:12:58.503Z,6.05
2018-03-31T19:15:25.614Z,10.07
2018-03-31T19:17:53.568Z,12.30
2018-03-31T19:23:22.600Z,22.98
2018-03-31T19:25:50.507Z,10.23
2018-03-31T19:28:25.163Z,10.30
2018-03-31T19:30:52.280Z,8.02
2018-03-31T19:33:19.365Z,7.80
2018-03-31T19:35:52.142Z,9.70
2018-03-31T19:38:25.352Z,10.50
2018-03-31T19:40:52.487Z,5.65
2018-03-31T19:43:19.612Z,4.72
2018-03-31T19:45:46.728Z,3.75
2018-03-31T19:48:13.858Z,6.28
2018-03-31T19:50:41.738Z,4.93
2018-03-31T19:53:08.866Z,4.32
2018-03-31T19:55:35.996Z,3.78
2018-03-31T19:58:03.126Z,4.45
2018-03-31T20:03:34.453Z,3.30
2018-03-31T20:06:02.344Z,6.30
2018-03-31T20:14:18.016Z,3.00
2018-03-31T20:16:46.018Z,3.17
2018-03-31T20:19:13.661Z,3.22
2018-03-31T20:21:41.544Z,3.40
2018-03-31T20:24:09.215Z,3.47
2018-03-31T20:26:36.355Z,3.55
2018-03-31T20:29:03.488Z,4.20
2018-03-31T20:31:31.381Z,3.85
2018-03-31T20:33:58.497Z,2.75
2018-03-31T20:36:26.408Z,3.85
2018-03-31T20:38:59.672Z,4.97
2018-03-31T20:41:26.831Z,5.00
2018-03-31T20:44:15.817Z,4.35
2018-03-31T20:46:42.930Z,2.85
2018-03-31T20:49:10.101Z,2.80
2018-03-31T20:51:37.272Z,3.83
2018-03-31T20:54:04.352Z,3.25
2018-03-31T20:56:31.514Z,3.62
2018-03-31T20:58:58.628Z,3.08
2018-03-31T21:01:25.788Z,3.65
2018-03-31T21:03:52.904Z,4.20
2018-03-31T21:06:20.004Z,4.45
2018-03-31T21:08:47.868Z,3.60
2018-03-31T21:11:14.996Z,4.85
2018-03-31T21:13:42.220Z,5.20
2018-03-31T21:16:09.361Z,6.40
2018-03-31T21:18:37.009Z,4.55
2018-03-31T21:21:04.816Z,3.08
2018-03-31T21:23:31.932Z,4.43
2018-03-31T21:25:59.082Z,4.25
2018-03-31T21:28:26.212Z,4.75
2018-03-31T21:30:54.125Z,5.68
2018-03-31T21:33:21.266Z,6.68
2018-03-31T21:35:48.429Z,4.78
2018-03-31T21:38:15.544Z,4.45
2018-03-31T21:40:42.676Z,6.70
2018-03-31T21:43:10.536Z,3.65
2018-03-31T21:45:38.431Z,4.45
2018-03-31T21:48:05.581Z,4.65
2018-03-31T21:50:34.865Z,6.05
2018-03-31T21:53:02.034Z,4.60
2018-03-31T21:55:29.187Z,6.85
2018-03-31T21:57:56.273Z,6.12
2018-03-31T22:00:23.430Z,5.25
2018-03-31T22:02:50.557Z,4.65
2018-03-31T22:05:20.771Z,5.37
2018-03-31T22:07:47.878Z,5.37
2018-03-31T22:10:15.013Z,4.75
2018-03-31T22:12:42.129Z,5.03
2018-03-31T22:15:14.871Z,6.82
2018-03-31T22:17:44.189Z,5.50
2018-03-31T22:20:11.347Z,5.75
2018-03-31T22:22:38.469Z,5.45
2018-03-31T22:25:06.432Z,7.07
2018-03-31T22:27:34.379Z,7.80
2018-03-31T22:30:01.465Z,7.65
2018-03-31T22:32:28.588Z,7.32
2018-03-31T22:34:55.696Z,6.70
2018-03-31T22:37:22.798Z,7.12
2018-03-31T22:39:55.073Z,6.57
2018-03-31T22:42:22.218Z,6.47
2018-03-31T22:44:49.307Z,5.05
2018-03-31T22:47:16.440Z,10.90
2018-03-31T22:49:43.559Z,7.03
2018-03-31T22:52:11.415Z,7.35
2018-03-31T22:54:39.259Z,5.75
2018-03-31T22:57:06.444Z,5.80
2018-03-31T22:59:34.354Z,5.07
2018-03-31T23:02:01.442Z,4.87
2018-03-31T23:04:29.350Z,5.20
2018-03-31T23:06:56.467Z,4.70
2018-03-31T23:09:24.340Z,4.65
2018-03-31T23:11:52.457Z,6.10
2018-03-31T23:14:19.566Z,4.78
2018-03-31T23:16:46.696Z,5.87
2018-03-31T23:19:14.579Z,5.47
2018-03-31T23:21:42.472Z,4.43
2018-03-31T23:24:09.555Z,5.55
2018-03-31T23:26:36.666Z,4.80
2018-03-31T23:29:03.803Z,5.80
2018-03-31T23:31:30.978Z,5.10
2018-03-31T23:33:58.473Z,6.00
2018-03-31T23:36:26.310Z,5.85
2018-03-31T23:38:53.436Z,4.93
2018-03-31T23:41:20.596Z,4.28
2018-03-31T23:43:47.769Z,6.55
2018-03-31T23:46:14.884Z,5.00
2018-03-31T23:48:43.091Z,6.05
2018-03-31T23:51:10.207Z,6.87
2018-03-31T23:53:37.578Z,6.68
2018-03-31T23:56:04.691Z,5.78
2018-03-31T23:58:31.808Z,4.35
